Time;durP1;ratioP1;P1;durP2;ratioP2;P2;SDS_P1;SDS_P2;PMS_P1;PMS_P2;Temp;Humidity;BMP_temperature;BMP_pressure;BME280_temperature;BME280_humidity;BME280_pressure;Samples;Min_cycle;Max_cycle;Signal;HPM_P1;HPM_P2
2021/12/29 00:00:50;;;;;;;3.65;2.30;;;10.00;99.90;;;;;;4976700;28;20027;-81
2021/12/29 00:03:26;;;;;;;2.97;2.53;;;10.00;99.90;;;;;;4977641;28;20058;-83
2021/12/29 00:05:51;;;;;;;3.58;2.60;;;10.00;99.90;;;;;;4976663;28;20037;-81
2021/12/29 00:08:17;;;;;;;7.35;3.60;;;10.00;99.90;;;;;;4976562;28;20019;-81
2021/12/29 00:10:46;;;;;;;3.40;2.53;;;10.00;99.90;;;;;;4959656;28;20070;-85
2021/12/29 00:13:19;;;;;;;4.18;3.33;;;10.00;99.90;;;;;;4961065;28;20442;-81
2021/12/29 00:15:46;;;;;;;5.35;2.92;;;10.00;99.90;;;;;;4962637;28;20084;-81
2021/12/29 00:18:12;;;;;;;3.20;2.90;;;10.00;99.90;;;;;;4990997;28;20430;-81
2021/12/29 00:20:38;;;;;;;4.18;2.92;;;10.00;99.90;;;;;;4961597;28;20061;-82
2021/12/29 00:23:05;;;;;;;3.45;3.13;;;10.00;99.90;;;;;;4980401;28;20483;-81
2021/12/29 00:25:31;;;;;;;3.63;2.70;;;10.00;99.90;;;;;;4997028;28;20026;-81
2021/12/29 00:27:59;;;;;;;14.15;8.80;;;10.00;99.90;;;;;;4980375;28;20037;-81
2021/12/29 00:30:26;;;;;;;5.88;4.03;;;10.00;99.90;;;;;;4998001;28;20034;-81
2021/12/29 00:32:54;;;;;;;4.22;2.47;;;10.00;99.90;;;;;;4979971;28;20026;-82
2021/12/29 00:35:20;;;;;;;3.25;2.60;;;10.00;99.90;;;;;;4980186;28;20033;-80
2021/12/29 00:37:45;;;;;;;3.35;2.78;;;9.90;99.90;;;;;;4979786;28;20030;-81
2021/12/29 00:40:12;;;;;;;6.25;3.50;;;10.00;99.90;;;;;;4979418;28;20030;-81
2021/12/29 00:42:38;;;;;;;4.20;2.25;;;10.00;99.90;;;;;;4979846;28;20033;-81
2021/12/29 00:45:05;;;;;;;2.83;2.28;;;10.00;99.90;;;;;;4980047;28;20026;-83
2021/12/29 00:47:33;;;;;;;3.55;2.55;;;10.00;99.90;;;;;;4963594;28;20026;-80
2021/12/29 00:50:01;;;;;;;3.05;2.38;;;10.00;99.90;;;;;;4997291;28;20041;-80
2021/12/29 00:52:26;;;;;;;4.65;2.90;;;10.00;99.90;;;;;;4979418;28;20026;-81
2021/12/29 00:54:52;;;;;;;3.83;2.60;;;10.00;99.90;;;;;;4979692;28;20029;-81
2021/12/29 00:57:17;;;;;;;6.93;3.28;;;10.00;99.90;;;;;;4963335;28;20093;-81
2021/12/29 00:59:45;;;;;;;4.80;2.60;;;10.00;99.90;;;;;;4978998;28;20463;-80
2021/12/29 01:02:11;;;;;;;3.40;2.83;;;10.00;99.90;;;;;;4979422;28;20026;-80
2021/12/29 01:04:38;;;;;;;4.38;3.08;;;9.90;99.90;;;;;;4997144;28;20378;-84
2021/12/29 01:07:04;;;;;;;5.15;3.65;;;9.90;99.90;;;;;;4978957;28;20105;-85
2021/12/29 01:09:30;;;;;;;5.03;3.80;;;9.90;99.90;;;;;;4997025;28;20060;-82
2021/12/29 01:11:57;;;;;;;9.75;4.65;;;9.90;99.90;;;;;;4979032;28;20026;-80
2021/12/29 01:14:25;;;;;;;4.68;3.85;;;9.90;99.90;;;;;;4978703;28;20177;-80
2021/12/29 01:16:50;;;;;;;5.53;4.50;;;9.90;99.90;;;;;;4979513;28;20072;-82
2021/12/29 01:19:22;;;;;;;7.03;4.32;;;9.90;99.90;;;;;;4979142;28;20121;-85
2021/12/29 01:21:51;;;;;;;6.82;4.43;;;9.90;99.90;;;;;;4978623;28;20037;-80
2021/12/29 01:24:18;;;;;;;6.03;4.20;;;9.80;99.90;;;;;;4978967;28;20034;-81
2021/12/29 01:26:44;;;;;;;4.75;3.53;;;9.90;99.90;;;;;;4979382;28;20390;-82
2021/12/29 01:29:11;;;;;;;6.07;4.03;;;9.80;99.90;;;;;;4978312;28;20037;-81
2021/12/29 01:31:37;;;;;;;9.48;4.55;;;9.80;99.90;;;;;;4979076;28;20026;-81
2021/12/29 01:34:05;;;;;;;6.03;4.20;;;9.90;99.90;;;;;;4978110;28;20498;-81
2021/12/29 01:36:36;;;;;;;8.73;5.35;;;9.80;99.90;;;;;;4995803;28;20108;-81
2021/12/29 01:39:05;;;;;;;7.75;4.45;;;9.90;99.90;;;;;;4996604;28;20018;-80
2021/12/29 01:41:31;;;;;;;7.50;4.97;;;9.90;99.90;;;;;;4978171;28;20031;-82
2021/12/29 01:43:57;;;;;;;8.23;5.43;;;9.90;99.90;;;;;;4978570;28;20030;-81
2021/12/29 01:46:23;;;;;;;9.45;6.35;;;9.80;99.90;;;;;;4979008;28;20018;-81
2021/12/29 01:48:48;;;;;;;12.82;6.13;;;9.90;99.90;;;;;;4978239;28;20360;-81
2021/12/29 01:51:17;;;;;;;10.40;5.90;;;9.90;99.90;;;;;;4978818;28;20022;-81
2021/12/29 01:53:49;;;;;;;9.32;5.90;;;9.90;99.90;;;;;;4996126;28;20025;-82
2021/12/29 01:56:15;;;;;;;10.35;5.47;;;9.90;99.90;;;;;;4978304;28;20026;-81
2021/12/29 01:58:41;;;;;;;11.05;6.75;;;9.80;99.90;;;;;;4978684;28;20088;-80
2021/12/29 02:01:07;;;;;;;10.07;6.18;;;9.80;99.90;;;;;;4978426;28;20022;-82
2021/12/29 02:03:33;;;;;;;8.65;5.70;;;9.80;99.90;;;;;;4977827;28;20027;-81
2021/12/29 02:05:58;;;;;;;8.57;5.22;;;9.80;99.90;;;;;;4995726;28;20019;-82
2021/12/29 02:08:24;;;;;;;12.75;6.78;;;9.80;99.90;;;;;;4978245;28;20022;-81
2021/12/29 02:10:52;;;;;;;9.63;6.28;;;9.80;99.90;;;;;;4977539;28;20084;-80
2021/12/29 02:13:18;;;;;;;8.18;6.15;;;9.80;99.90;;;;;;4978291;28;20033;-82
2021/12/29 02:15:44;;;;;;;10.05;6.00;;;9.80;99.90;;;;;;4978173;28;20411;-81
2021/12/29 02:18:15;;;;;;;10.35;6.43;;;9.80;99.90;;;;;;4994931;28;20076;-81
2021/12/29 02:20:46;;;;;;;10.65;6.65;;;9.90;99.90;;;;;;4978377;28;20041;-83
2021/12/29 02:23:20;;;;;;;;;;;9.80;99.90;;;;;;4975223;28;20058;-81
2021/12/29 02:25:54;;;;;;;10.88;5.93;;;9.80;99.90;;;;;;4974302;28;20367;-81
2021/12/29 02:28:28;;;;;;;7.93;5.82;;;9.80;99.90;;;;;;4975107;28;20121;-80
2021/12/29 02:30:59;;;;;;;10.00;6.30;;;9.90;99.90;;;;;;4974076;28;20035;-81
2021/12/29 02:33:25;;;;;;;7.47;5.60;;;9.80;99.90;;;;;;4972877;28;20051;-82
2021/12/29 02:35:51;;;;;;;7.25;6.10;;;9.90;99.90;;;;;;4974392;28;20026;-82
2021/12/29 02:38:20;;;;;;;9.18;6.13;;;9.80;99.90;;;;;;4973771;28;20030;-81
2021/12/29 02:40:50;;;;;;;9.55;6.60;;;9.90;99.90;;;;;;4973536;28;20027;-85
2021/12/29 02:43:19;;;;;;;8.15;5.43;;;9.90;99.90;;;;;;4974076;28;20049;-81
2021/12/29 02:45:49;;;;;;;9.23;5.25;;;9.90;99.90;;;;;;4973571;28;20031;-82
2021/12/29 02:48:15;;;;;;;8.73;5.55;;;9.90;99.90;;;;;;4973693;28;20022;-82
2021/12/29 02:50:42;;;;;;;8.63;5.15;;;9.90;99.90;;;;;;4975441;28;20047;-82
2021/12/29 02:53:09;;;;;;;11.32;5.88;;;9.90;99.90;;;;;;4969804;28;20031;-81
2021/12/29 02:55:35;;;;;;;7.43;5.35;;;9.90;99.90;;;;;;4972770;28;20483;-80
2021/12/29 02:58:01;;;;;;;9.88;5.60;;;9.90;99.90;;;;;;4974542;28;20057;-81
2021/12/29 03:00:26;;;;;;;7.93;4.88;;;9.90;99.90;;;;;;4973667;28;20033;-82
2021/12/29 03:02:52;;;;;;;11.27;5.90;;;9.90;99.90;;;;;;4975296;28;20027;-80
2021/12/29 03:05:30;;;;;;;7.80;5.60;;;9.90;99.90;;;;;;5098653;27;20360;-81
2021/12/29 03:07:56;;;;;;;8.52;5.68;;;9.90;99.90;;;;;;5089628;28;20029;-81
2021/12/29 03:10:21;;;;;;;8.75;6.03;;;9.90;99.90;;;;;;5091010;28;20074;-81
2021/12/29 03:12:47;;;;;;;8.35;5.28;;;9.90;99.90;;;;;;5088648;28;20020;-82
2021/12/29 03:15:12;;;;;;;7.63;5.25;;;9.90;99.90;;;;;;5089222;28;20430;-82
2021/12/29 03:17:38;;;;;;;8.40;5.70;;;9.90;99.90;;;;;;5090085;28;20419;-85
2021/12/29 03:20:04;;;;;;;7.80;5.10;;;9.90;99.90;;;;;;5090275;28;20426;-85
2021/12/29 03:22:33;;;;;;;8.10;5.18;;;9.90;99.90;;;;;;5090705;28;20079;-82
2021/12/29 03:24:58;;;;;;;7.78;5.43;;;10.00;99.90;;;;;;5089084;28;20442;-79
2021/12/29 03:27:24;;;;;;;8.05;5.70;;;10.00;99.90;;;;;;5088282;28;20119;-82
2021/12/29 03:29:49;;;;;;;8.80;5.07;;;10.00;99.90;;;;;;5089506;28;20074;-84
2021/12/29 03:32:23;;;;;;;8.65;5.18;;;10.00;99.90;;;;;;5090273;28;20059;-84
2021/12/29 03:34:48;;;;;;;6.57;5.70;;;10.00;99.90;;;;;;5089744;28;20376;-86
2021/12/29 03:37:14;;;;;;;6.47;4.50;;;10.00;99.90;;;;;;5090795;28;20017;-83
2021/12/29 03:39:40;;;;;;;7.28;4.95;;;10.10;99.90;;;;;;5090055;28;20476;-82
2021/12/29 03:42:06;;;;;;;5.65;4.53;;;10.10;99.90;;;;;;5086622;28;20035;-83
2021/12/29 03:44:32;;;;;;;6.38;4.10;;;10.00;99.90;;;;;;5088560;28;20111;-84
2021/12/29 03:46:57;;;;;;;4.25;3.63;;;10.10;99.90;;;;;;5089829;28;20108;-84
2021/12/29 03:49:23;;;;;;;7.28;4.18;;;10.10;99.90;;;;;;5088056;28;20070;-82
2021/12/29 03:51:48;;;;;;;9.20;4.18;;;10.10;99.90;;;;;;5088225;28;20479;-82
2021/12/29 03:54:16;;;;;;;6.78;3.92;;;10.10;99.90;;;;;;5090042;28;20031;-82
2021/12/29 03:56:42;;;;;;;8.75;4.10;;;10.10;99.90;;;;;;5090238;28;20118;-82
2021/12/29 03:59:08;;;;;;;6.45;3.70;;;10.00;99.90;;;;;;5089400;28;20112;-82
2021/12/29 04:01:33;;;;;;;6.03;3.38;;;10.00;99.90;;;;;;5089563;28;20066;-82
2021/12/29 04:03:59;;;;;;;9.38;3.80;;;10.10;99.90;;;;;;5088299;28;20052;-82
2021/12/29 04:06:24;;;;;;;8.23;3.80;;;10.10;99.90;;;;;;5089834;28;20078;-82
2021/12/29 04:08:50;;;;;;;8.75;3.58;;;10.10;99.90;;;;;;5087936;28;20089;-83
2021/12/29 04:11:15;;;;;;;7.10;3.63;;;10.10;99.90;;;;;;5086648;28;20020;-84
2021/12/29 04:13:43;;;;;;;7.72;3.97;;;10.10;99.90;;;;;;5089671;28;20032;-85
2021/12/29 04:16:16;;;;;;;7.32;3.58;;;10.10;99.90;;;;;;5079227;28;20013;-83
2021/12/29 04:18:55;;;;;;;7.20;3.20;;;10.10;99.90;;;;;;5074860;28;20093;-83
2021/12/29 04:21:21;;;;;;;7.47;3.60;;;10.10;99.90;;;;;;5072405;28;20507;-81
2021/12/29 04:23:46;;;;;;;9.23;3.80;;;10.10;99.90;;;;;;5074688;28;20041;-82
2021/12/29 04:26:12;;;;;;;8.93;4.30;;;10.10;99.90;;;;;;5073962;28;20488;-82
2021/12/29 04:28:38;;;;;;;9.50;3.67;;;10.10;99.90;;;;;;5074287;28;20028;-81
2021/12/29 04:31:07;;;;;;;6.68;3.47;;;10.10;99.90;;;;;;5073482;28;20065;-82
2021/12/29 04:33:33;;;;;;;5.53;3.30;;;10.10;99.90;;;;;;5075632;28;20422;-81
2021/12/29 04:35:59;;;;;;;10.18;4.03;;;10.10;99.90;;;;;;5073305;28;20392;-83
2021/12/29 04:38:25;;;;;;;9.55;3.88;;;10.10;99.90;;;;;;5075610;28;20024;-81
2021/12/29 04:40:53;;;;;;;7.80;3.35;;;10.00;99.90;;;;;;5075777;28;20020;-80
2021/12/29 04:43:19;;;;;;;5.88;3.53;;;10.00;99.90;;;;;;5074766;28;20067;-82
2021/12/29 04:45:46;;;;;;;6.20;3.70;;;10.00;99.90;;;;;;5075563;28;20032;-80
2021/12/29 04:48:13;;;;;;;8.27;3.65;;;10.00;99.90;;;;;;5075435;28;20373;-82
2021/12/29 04:50:51;;;;;;;5.68;2.95;;;10.00;99.90;;;;;;5075138;28;20074;-79
2021/12/29 04:53:19;;;;;;;9.02;3.60;;;10.00;99.90;;;;;;5074321;28;20024;-80
2021/12/29 04:55:45;;;;;;;6.75;3.00;;;10.00;99.90;;;;;;5073764;28;20368;-80
2021/12/29 04:58:12;;;;;;;7.80;3.67;;;10.00;99.90;;;;;;5075101;28;20024;-80
2021/12/29 05:00:38;;;;;;;6.28;3.85;;;10.00;99.90;;;;;;5075441;28;20024;-81
2021/12/29 05:03:04;;;;;;;6.20;2.90;;;10.00;99.90;;;;;;5074917;28;20550;-82
2021/12/29 05:10:40;;;;;;;7.43;3.30;;;10.00;99.90;;;;;;5073742;28;20569;-80
2021/12/29 05:13:07;;;;;;;9.13;3.90;;;10.10;99.90;;;;;;5064040;28;20013;-80
2021/12/29 05:15:33;;;;;;;3.88;2.60;;;10.00;99.90;;;;;;5072630;28;20033;-81
2021/12/29 05:17:59;;;;;;;8.35;3.42;;;10.00;99.90;;;;;;5070814;28;20098;-81
2021/12/29 05:20:29;;;;;;;8.95;3.08;;;10.00;99.90;;;;;;5074880;28;20025;-81
2021/12/29 05:22:56;;;;;;;5.50;2.80;;;10.00;99.90;;;;;;5073467;28;20477;-81
2021/12/29 05:25:23;;;;;;;5.00;3.03;;;10.00;99.90;;;;;;5073336;28;20036;-81
2021/12/29 05:27:49;;;;;;;5.68;3.08;;;10.10;99.90;;;;;;5067301;28;20438;-79
2021/12/29 05:30:15;;;;;;;4.97;3.30;;;10.10;99.90;;;;;;5074777;28;20025;-83
2021/12/29 05:32:41;;;;;;;6.90;4.18;;;10.10;99.90;;;;;;5073177;28;20021;-87
2021/12/29 05:35:08;;;;;;;8.82;5.60;;;10.00;99.90;;;;;;5073780;28;20025;-82
2021/12/29 05:37:33;;;;;;;7.85;5.00;;;10.00;99.90;;;;;;5074711;28;20025;-85
2021/12/29 05:39:59;;;;;;;5.65;3.53;;;10.10;99.90;;;;;;5072814;28;20106;-82
2021/12/29 05:42:27;;;;;;;5.20;3.30;;;10.00;99.90;;;;;;5071816;28;20079;-85
2021/12/29 05:44:52;;;;;;;5.97;3.20;;;10.00;99.90;;;;;;5067085;28;20036;-81
2021/12/29 05:47:18;;;;;;;7.65;3.80;;;10.10;99.90;;;;;;5062571;28;20035;-81
2021/12/29 05:49:43;;;;;;;5.75;3.10;;;10.00;99.90;;;;;;5054398;28;20025;-82
2021/12/29 05:52:10;;;;;;;5.00;3.80;;;10.00;99.90;;;;;;5065397;28;20028;-82
2021/12/29 05:54:36;;;;;;;9.25;4.43;;;10.00;99.90;;;;;;5094085;28;20024;-85
2021/12/29 05:57:02;;;;;;;5.20;4.13;;;10.00;99.90;;;;;;5072948;28;20527;-86
2021/12/29 05:59:28;;;;;;;3.92;3.58;;;10.00;99.90;;;;;;5062664;28;20089;-82
2021/12/29 06:01:53;;;;;;;6.00;3.85;;;9.90;99.90;;;;;;5059716;28;20028;-82
2021/12/29 06:04:19;;;;;;;4.80;4.10;;;10.00;99.90;;;;;;5072575;28;20540;-81
2021/12/29 06:06:45;;;;;;;4.13;3.72;;;9.90;99.90;;;;;;5069256;28;20113;-81
2021/12/29 06:09:10;;;;;;;4.90;3.95;;;9.90;99.90;;;;;;5073030;28;20016;-84
2021/12/29 06:11:36;;;;;;;5.15;3.63;;;9.90;99.90;;;;;;5073296;28;20043;-83
2021/12/29 06:14:01;;;;;;;6.18;4.25;;;9.90;99.90;;;;;;5072507;28;20094;-78
2021/12/29 06:16:27;;;;;;;3.85;3.45;;;9.90;99.90;;;;;;5072081;28;20103;-84
2021/12/29 06:18:54;;;;;;;5.18;4.40;;;9.90;99.90;;;;;;5072701;28;20025;-85
2021/12/29 06:21:20;;;;;;;5.38;3.90;;;9.90;99.90;;;;;;5069628;28;20038;-82
2021/12/29 06:23:47;;;;;;;6.38;5.80;;;9.90;99.90;;;;;;5072521;28;20119;-83
2021/12/29 06:26:13;;;;;;;7.25;6.05;;;9.90;99.90;;;;;;5068177;28;20058;-82
2021/12/29 06:28:39;;;;;;;7.85;6.82;;;9.90;99.90;;;;;;5080944;28;20028;-83
2021/12/29 06:31:05;;;;;;;260.75;16.60;;;9.90;99.90;;;;;;5077892;28;20028;-84
2021/12/29 06:33:32;;;;;;;9.63;8.63;;;9.90;99.90;;;;;;5087415;28;20338;-84
2021/12/29 06:35:58;;;;;;;6.53;5.30;;;10.00;99.90;;;;;;5083003;28;20111;-82
2021/12/29 06:38:24;;;;;;;5.07;4.60;;;9.90;99.90;;;;;;5080420;28;20109;-82
2021/12/29 06:40:50;;;;;;;7.03;4.47;;;9.90;99.90;;;;;;5073410;28;20028;-85
2021/12/29 06:43:16;;;;;;;4.68;4.03;;;10.00;99.90;;;;;;5061522;28;20115;-81
2021/12/29 06:45:41;;;;;;;6.20;3.85;;;10.00;99.90;;;;;;5058650;28;20174;-83
2021/12/29 06:48:07;;;;;;;3.85;3.45;;;10.00;99.90;;;;;;5067969;28;20556;-83
2021/12/29 06:50:33;;;;;;;4.22;3.58;;;10.00;99.90;;;;;;5071108;28;20569;-85
2021/12/29 06:52:59;;;;;;;4.70;3.70;;;10.00;99.90;;;;;;5071628;28;20029;-89
2021/12/29 06:55:25;;;;;;;4.95;4.32;;;10.00;99.90;;;;;;5072343;28;20392;-91
2021/12/29 06:57:51;;;;;;;4.90;3.97;;;10.00;99.90;;;;;;5072348;28;20028;-93
2021/12/29 07:00:17;;;;;;;3.72;3.40;;;9.90;99.90;;;;;;5073415;28;20028;-90
2021/12/29 07:02:44;;;;;;;3.85;3.40;;;10.00;99.90;;;;;;5070656;28;20043;-87
2021/12/29 07:05:09;;;;;;;5.07;3.83;;;9.90;99.90;;;;;;5071232;28;20040;-87
2021/12/29 07:07:35;;;;;;;3.65;3.35;;;10.00;99.90;;;;;;5071600;28;20032;-86
2021/12/29 07:10:02;;;;;;;3.15;2.72;;;10.00;99.90;;;;;;5072468;28;20021;-85
2021/12/29 07:12:27;;;;;;;3.78;3.20;;;10.00;99.90;;;;;;5070501;28;20357;-85
2021/12/29 07:14:53;;;;;;;3.50;2.78;;;10.00;99.90;;;;;;5071370;28;20487;-85
2021/12/29 07:17:19;;;;;;;3.28;2.70;;;10.10;99.90;;;;;;5070268;28;20029;-86
2021/12/29 07:19:45;;;;;;;4.78;3.08;;;10.10;99.90;;;;;;5071527;28;20112;-83
2021/12/29 07:22:12;;;;;;;3.35;2.83;;;10.10;99.90;;;;;;5071632;28;20039;-88
2021/12/29 07:24:37;;;;;;;4.47;2.97;;;10.10;99.90;;;;;;5054555;28;20079;-91
2021/12/29 07:27:03;;;;;;;4.93;3.58;;;10.00;99.90;;;;;;5070292;28;20433;-87
2021/12/29 07:29:29;;;;;;;4.63;3.22;;;10.00;99.90;;;;;;5072839;28;20039;-87
2021/12/29 07:31:57;;;;;;;4.53;3.28;;;10.00;99.90;;;;;;5070186;28;20025;-82
2021/12/29 07:34:24;;;;;;;8.13;4.07;;;10.10;99.90;;;;;;5071003;28;20069;-79
2021/12/29 07:36:50;;;;;;;4.88;3.47;;;10.10;99.90;;;;;;5084730;28;20024;-76
2021/12/29 07:39:15;;;;;;;8.10;4.68;;;10.10;99.90;;;;;;5071658;28;20032;-75
2021/12/29 07:41:42;;;;;;;6.05;4.20;;;10.10;99.90;;;;;;5071825;28;20043;-76
2021/12/29 07:44:13;;;;;;;9.68;4.78;;;10.10;99.90;;;;;;5070593;28;20066;-76
2021/12/29 07:46:44;;;;;;;7.33;4.27;;;10.10;99.90;;;;;;5069367;28;20089;-85
2021/12/29 07:49:18;;;;;;;7.95;3.78;;;10.00;99.90;;;;;;5071037;28;20610;-87
2021/12/29 07:54:14;;;;;;;7.35;4.95;;;10.10;99.90;;;;;;5031412;28;20049;-83
2021/12/29 07:56:40;;;;;;;6.53;4.63;;;10.00;99.90;;;;;;5019383;28;20091;-82
